Amoret, Missouri
Current Conditions -  °F | °C
As of 6:53 PM on Thursday 30 Oct 2014 (Local Time) from KOJC Reporting Station
Clear Clear  
Wind Chill: 61°   Ceiling: Unl
Heat Index: 61°   Visibility: 10mi
Dew Point: 40°   Wind: 10mph
Humidity: 46%   Direction: 340°NNW
Pressure: 30.08"   Gusts: NA
Location:  38.26°N, 94.59°W
Report Text: KOJC 302353Z 34009KT 10SM CLR 16/04 A3008 RMK AO2 SLP183 T01610044 10200 20156 53019
Loading
Personal Weather Stations






























Interactive Weather Map
Tropical Storm Tracking
New forecast layout! Learn more

10-Day Weather Forecast

Advertisements
Track Severe Weather on mobile